Stony Rapids, Canada
Current Conditions -  °F | °C
As of 2:00 PM on Monday 22 Dec 2014 (Local Time) from CYSF Reporting Station
Overcast Overcast  
Wind Chill:   Ceiling: 900
Heat Index: 16°   Visibility: 9mi
Dew Point: 16°   Wind: 8mph
Humidity: 100%   Direction: 150°SSE
Pressure: 29.92"   Gusts: NA
Location:  59.27°N, 105.83°W
Report Text: CYSF 222000Z AUTO 15007KT 080V170 9SM OVC009 M09/M09 A2992 RMK SLP155
Loading
Personal Weather Stations






























Interactive Weather Map New forecast layout! Learn more

10-Day Weather Forecast

Advertisements
Track Severe Weather on mobile